sensor_id;sensor_type;location;lat;lon;timestamp;temperature;humidity
55121;DHT22;41019;48.512;9.036;2023-04-24T00:00:56;12.00;94.00
55121;DHT22;41019;48.512;9.036;2023-04-24T00:03:23;12.00;94.20
55121;DHT22;41019;48.512;9.036;2023-04-24T00:05:49;12.10;94.20
55121;DHT22;41019;48.512;9.036;2023-04-24T00:08:15;12.00;94.00
55121;DHT22;41019;48.512;9.036;2023-04-24T00:10:42;12.00;94.10
55121;DHT22;41019;48.512;9.036;2023-04-24T00:13:08;12.00;94.10
55121;DHT22;41019;48.512;9.036;2023-04-24T00:15:34;12.00;93.90
55121;DHT22;41019;48.512;9.036;2023-04-24T00:18:00;12.00;93.60
55121;DHT22;41019;48.512;9.036;2023-04-24T00:20:27;12.10;93.90
55121;DHT22;41019;48.512;9.036;2023-04-24T00:22:55;12.10;93.10
55121;DHT22;41019;48.512;9.036;2023-04-24T00:25:21;12.20;93.00
55121;DHT22;41019;48.512;9.036;2023-04-24T00:27:47;12.20;92.90
55121;DHT22;41019;48.512;9.036;2023-04-24T00:30:13;12.20;93.30
55121;DHT22;41019;48.512;9.036;2023-04-24T00:32:39;12.20;93.30
55121;DHT22;41019;48.512;9.036;2023-04-24T00:35:05;12.20;94.50
55121;DHT22;41019;48.512;9.036;2023-04-24T00:37:31;12.20;94.60
55121;DHT22;41019;48.512;9.036;2023-04-24T00:39:57;12.20;93.50
55121;DHT22;41019;48.512;9.036;2023-04-24T00:42:24;12.20;94.50
55121;DHT22;41019;48.512;9.036;2023-04-24T00:44:51;12.20;94.50
55121;DHT22;41019;48.512;9.036;2023-04-24T00:47:19;12.20;94.60
55121;DHT22;41019;48.512;9.036;2023-04-24T00:49:45;12.20;94.80
55121;DHT22;41019;48.512;9.036;2023-04-24T00:52:11;12.20;94.90
55121;DHT22;41019;48.512;9.036;2023-04-24T00:54:38;12.20;95.00
55121;DHT22;41019;48.512;9.036;2023-04-24T00:57:04;12.20;95.20
55121;DHT22;41019;48.512;9.036;2023-04-24T00:59:31;12.20;95.10
55121;DHT22;41019;48.512;9.036;2023-04-24T01:01:58;12.10;95.40
55121;DHT22;41019;48.512;9.036;2023-04-24T01:04:24;12.10;95.70
55121;DHT22;41019;48.512;9.036;2023-04-24T01:06:52;12.10;95.90
55121;DHT22;41019;48.512;9.036;2023-04-24T01:09:18;12.10;96.30
55121;DHT22;41019;48.512;9.036;2023-04-24T01:11:44;12.10;97.00
55121;DHT22;41019;48.512;9.036;2023-04-24T01:14:11;12.10;97.10
55121;DHT22;41019;48.512;9.036;2023-04-24T01:16:37;12.10;97.50
55121;DHT22;41019;48.512;9.036;2023-04-24T01:19:05;12.00;96.80
55121;DHT22;41019;48.512;9.036;2023-04-24T01:21:36;12.00;96.90
55121;DHT22;41019;48.512;9.036;2023-04-24T01:24:04;12.00;96.80
55121;DHT22;41019;48.512;9.036;2023-04-24T01:26:30;12.00;97.70
55121;DHT22;41019;48.512;9.036;2023-04-24T01:28:56;12.00;98.60
55121;DHT22;41019;48.512;9.036;2023-04-24T01:31:23;11.90;98.60
55121;DHT22;41019;48.512;9.036;2023-04-24T01:33:51;11.90;98.70
55121;DHT22;41019;48.512;9.036;2023-04-24T01:36:18;11.80;98.60
55121;DHT22;41019;48.512;9.036;2023-04-24T01:38:44;11.80;98.80
55121;DHT22;41019;48.512;9.036;2023-04-24T01:41:10;11.80;99.40
55121;DHT22;41019;48.512;9.036;2023-04-24T01:43:36;11.70;99.30
55121;DHT22;41019;48.512;9.036;2023-04-24T01:46:02;11.70;99.50
55121;DHT22;41019;48.512;9.036;2023-04-24T01:48:28;11.70;99.70
55121;DHT22;41019;48.512;9.036;2023-04-24T01:50:56;11.70;99.70
55121;DHT22;41019;48.512;9.036;2023-04-24T01:53:22;11.70;99.80
55121;DHT22;41019;48.512;9.036;2023-04-24T01:55:48;11.70;99.90
55121;DHT22;41019;48.512;9.036;2023-04-24T01:58:14;11.70;99.90
55121;DHT22;41019;48.512;9.036;2023-04-24T02:00:41;11.70;99.90
55121;DHT22;41019;48.512;9.036;2023-04-24T02:03:06;11.70;99.90
55121;DHT22;41019;48.512;9.036;2023-04-24T02:05:32;11.60;99.90
55121;DHT22;41019;48.512;9.036;2023-04-24T02:07:59;11.70;99.90
55121;DHT22;41019;48.512;9.036;2023-04-24T02:10:25;11.60;99.90
55121;DHT22;41019;48.512;9.036;2023-04-24T02:12:51;11.60;99.90
55121;DHT22;41019;48.512;9.036;2023-04-24T02:15:17;11.60;99.90
55121;DHT22;41019;48.512;9.036;2023-04-24T02:17:43;11.60;99.90
55121;DHT22;41019;48.512;9.036;2023-04-24T02:20:09;11.60;99.90
55121;DHT22;41019;48.512;9.036;2023-04-24T02:22:37;11.60;99.90
55121;DHT22;41019;48.512;9.036;2023-04-24T02:25:03;11.60;99.90
55121;DHT22;41019;48.512;9.036;2023-04-24T02:27:29;11.60;99.90
55121;DHT22;41019;48.512;9.036;2023-04-24T02:29:56;11.50;99.90
55121;DHT22;41019;48.512;9.036;2023-04-24T02:32:22;11.50;99.90
55121;DHT22;41019;48.512;9.036;2023-04-24T02:34:48;11.50;99.90
55121;DHT22;41019;48.512;9.036;2023-04-24T02:37:14;11.50;99.90
55121;DHT22;41019;48.512;9.036;2023-04-24T02:39:42;11.50;99.90
55121;DHT22;41019;48.512;9.036;2023-04-24T02:42:08;11.50;99.90
55121;DHT22;41019;48.512;9.036;2023-04-24T02:44:34;11.50;99.90
55121;DHT22;41019;48.512;9.036;2023-04-24T02:47:01;11.40;99.90
55121;DHT22;41019;48.512;9.036;2023-04-24T02:49:26;11.40;99.90
55121;DHT22;41019;48.512;9.036;2023-04-24T02:51:53;11.40;99.90
55121;DHT22;41019;48.512;9.036;2023-04-24T02:54:20;11.40;99.90
55121;DHT22;41019;48.512;9.036;2023-04-24T02:56:46;11.40;99.90
55121;DHT22;41019;48.512;9.036;2023-04-24T02:59:11;11.40;99.90
55121;DHT22;41019;48.512;9.036;2023-04-24T03:01:37;11.40;99.90
55121;DHT22;41019;48.512;9.036;2023-04-24T03:04:03;11.40;99.90
55121;DHT22;41019;48.512;9.036;2023-04-24T03:06:29;11.40;99.90
55121;DHT22;41019;48.512;9.036;2023-04-24T03:08:56;11.40;99.90
55121;DHT22;41019;48.512;9.036;2023-04-24T03:11:22;11.40;99.90
55121;DHT22;41019;48.512;9.036;2023-04-24T03:13:48;11.40;99.90
55121;DHT22;41019;48.512;9.036;2023-04-24T03:16:14;11.40;99.90
55121;DHT22;41019;48.512;9.036;2023-04-24T03:18:41;11.50;99.90
55121;DHT22;41019;48.512;9.036;2023-04-24T03:21:08;11.50;99.90
55121;DHT22;41019;48.512;9.036;2023-04-24T03:23:34;11.40;99.90
55121;DHT22;41019;48.512;9.036;2023-04-24T03:26:00;11.40;99.90
55121;DHT22;41019;48.512;9.036;2023-04-24T03:28:26;11.40;99.90
55121;DHT22;41019;48.512;9.036;2023-04-24T03:30:59;11.40;99.90
55121;DHT22;41019;48.512;9.036;2023-04-24T03:33:30;11.40;99.90
55121;DHT22;41019;48.512;9.036;2023-04-24T03:36:00;11.40;99.90
55121;DHT22;41019;48.512;9.036;2023-04-24T03:38:34;11.30;99.90
55121;DHT22;41019;48.512;9.036;2023-04-24T03:41:09;11.30;99.90
55121;DHT22;41019;48.512;9.036;2023-04-24T03:43:39;11.30;99.90
55121;DHT22;41019;48.512;9.036;2023-04-24T03:46:06;11.20;99.90
55121;DHT22;41019;48.512;9.036;2023-04-24T03:48:37;11.30;99.90
55121;DHT22;41019;48.512;9.036;2023-04-24T03:51:05;11.20;99.90
55121;DHT22;41019;48.512;9.036;2023-04-24T03:53:33;11.20;99.80
55121;DHT22;41019;48.512;9.036;2023-04-24T03:55:59;11.10;99.90
55121;DHT22;41019;48.512;9.036;2023-04-24T03:58:25;11.10;99.90
55121;DHT22;41019;48.512;9.036;2023-04-24T04:00:52;11.00;99.90
55121;DHT22;41019;48.512;9.036;2023-04-24T04:03:38;11.00;99.90
55121;DHT22;41019;48.512;9.036;2023-04-24T04:06:04;10.90;99.90
55121;DHT22;41019;48.512;9.036;2023-04-24T04:08:30;10.90;99.90
55121;DHT22;41019;48.512;9.036;2023-04-24T04:10:57;10.80;99.90
55121;DHT22;41019;48.512;9.036;2023-04-24T04:13:23;10.80;99.90
55121;DHT22;41019;48.512;9.036;2023-04-24T04:15:49;10.80;99.90
55121;DHT22;41019;48.512;9.036;2023-04-24T04:18:16;10.70;99.90
55121;DHT22;41019;48.512;9.036;2023-04-24T04:20:41;10.80;99.90
55121;DHT22;41019;48.512;9.036;2023-04-24T04:23:09;10.80;99.90
55121;DHT22;41019;48.512;9.036;2023-04-24T04:25:45;10.80;99.90
55121;DHT22;41019;48.512;9.036;2023-04-24T04:28:12;10.70;99.90
55121;DHT22;41019;48.512;9.036;2023-04-24T04:30:38;10.80;99.90
55121;DHT22;41019;48.512;9.036;2023-04-24T04:33:06;10.80;99.90
55121;DHT22;41019;48.512;9.036;2023-04-24T04:35:34;10.80;99.90
55121;DHT22;41019;48.512;9.036;2023-04-24T04:37:59;10.80;99.90
55121;DHT22;41019;48.512;9.036;2023-04-24T04:40:38;10.90;99.90
55121;DHT22;41019;48.512;9.036;2023-04-24T04:43:05;10.90;99.90
55121;DHT22;41019;48.512;9.036;2023-04-24T04:45:38;11.00;99.90
55121;DHT22;41019;48.512;9.036;2023-04-24T04:48:21;11.00;99.90
55121;DHT22;41019;48.512;9.036;2023-04-24T04:50:48;11.00;99.90
55121;DHT22;41019;48.512;9.036;2023-04-24T04:53:14;11.00;99.90
55121;DHT22;41019;48.512;9.036;2023-04-24T04:55:41;11.00;99.90
55121;DHT22;41019;48.512;9.036;2023-04-24T04:58:14;11.00;99.90
55121;DHT22;41019;48.512;9.036;2023-04-24T05:00:39;11.00;99.90
55121;DHT22;41019;48.512;9.036;2023-04-24T05:03:16;11.00;99.90
55121;DHT22;41019;48.512;9.036;2023-04-24T05:05:42;11.00;99.90
55121;DHT22;41019;48.512;9.036;2023-04-24T05:08:11;11.00;99.90
55121;DHT22;41019;48.512;9.036;2023-04-24T05:10:38;11.00;99.90
55121;DHT22;41019;48.512;9.036;2023-04-24T05:13:04;11.00;99.90
55121;DHT22;41019;48.512;9.036;2023-04-24T05:15:31;11.00;99.90
55121;DHT22;41019;48.512;9.036;2023-04-24T05:17:59;11.00;99.90
55121;DHT22;41019;48.512;9.036;2023-04-24T05:20:27;11.00;99.80
55121;DHT22;41019;48.512;9.036;2023-04-24T05:22:53;11.00;99.20
55121;DHT22;41019;48.512;9.036;2023-04-24T05:25:20;10.90;99.10
55121;DHT22;41019;48.512;9.036;2023-04-24T05:27:52;10.90;99.00
55121;DHT22;41019;48.512;9.036;2023-04-24T05:30:19;10.90;98.60
55121;DHT22;41019;48.512;9.036;2023-04-24T05:32:45;10.80;98.70
55121;DHT22;41019;48.512;9.036;2023-04-24T05:35:12;10.80;98.90
55121;DHT22;41019;48.512;9.036;2023-04-24T05:37:39;10.80;99.00
55121;DHT22;41019;48.512;9.036;2023-04-24T05:40:06;10.70;99.20
55121;DHT22;41019;48.512;9.036;2023-04-24T05:42:32;10.80;99.50
55121;DHT22;41019;48.512;9.036;2023-04-24T05:44:58;10.70;99.40
55121;DHT22;41019;48.512;9.036;2023-04-24T05:47:25;10.70;99.70
55121;DHT22;41019;48.512;9.036;2023-04-24T05:49:52;10.80;99.20
55121;DHT22;41019;48.512;9.036;2023-04-24T05:52:19;10.80;99.80
55121;DHT22;41019;48.512;9.036;2023-04-24T05:54:46;10.80;99.70
55121;DHT22;41019;48.512;9.036;2023-04-24T05:57:16;10.90;99.40
55121;DHT22;41019;48.512;9.036;2023-04-24T06:00:10;10.90;99.60
55121;DHT22;41019;48.512;9.036;2023-04-24T06:02:46;11.00;99.60
55121;DHT22;41019;48.512;9.036;2023-04-24T06:05:13;11.00;99.50
55121;DHT22;41019;48.512;9.036;2023-04-24T06:07:38;11.00;99.30
55121;DHT22;41019;48.512;9.036;2023-04-24T06:10:06;11.00;99.20
55121;DHT22;41019;48.512;9.036;2023-04-24T06:12:39;11.10;99.30
55121;DHT22;41019;48.512;9.036;2023-04-24T06:15:10;11.10;99.30
55121;DHT22;41019;48.512;9.036;2023-04-24T06:17:57;11.10;99.70
55121;DHT22;41019;48.512;9.036;2023-04-24T06:20:23;11.20;99.50
55121;DHT22;41019;48.512;9.036;2023-04-24T06:22:49;11.30;98.90
55121;DHT22;41019;48.512;9.036;2023-04-24T06:25:16;11.40;98.60
55121;DHT22;41019;48.512;9.036;2023-04-24T06:27:42;11.30;98.40
55121;DHT22;41019;48.512;9.036;2023-04-24T06:30:08;11.40;98.40
55121;DHT22;41019;48.512;9.036;2023-04-24T06:32:34;11.40;98.70
55121;DHT22;41019;48.512;9.036;2023-04-24T06:35:00;11.50;98.90
55121;DHT22;41019;48.512;9.036;2023-04-24T06:37:28;11.60;98.20
55121;DHT22;41019;48.512;9.036;2023-04-24T06:39:54;11.70;97.60
55121;DHT22;41019;48.512;9.036;2023-04-24T06:42:20;11.80;97.80
55121;DHT22;41019;48.512;9.036;2023-04-24T06:44:49;12.00;97.60
55121;DHT22;41019;48.512;9.036;2023-04-24T06:47:14;12.10;97.90
55121;DHT22;41019;48.512;9.036;2023-04-24T06:49:41;12.30;97.40
55121;DHT22;41019;48.512;9.036;2023-04-24T06:52:06;12.50;96.50
55121;DHT22;41019;48.512;9.036;2023-04-24T06:54:33;12.60;96.50
55121;DHT22;41019;48.512;9.036;2023-04-24T06:56:59;12.80;95.30
55121;DHT22;41019;48.512;9.036;2023-04-24T06:59:26;13.00;95.70
55121;DHT22;41019;48.512;9.036;2023-04-24T07:01:53;13.20;94.50
55121;DHT22;41019;48.512;9.036;2023-04-24T07:04:19;13.30;93.90
55121;DHT22;41019;48.512;9.036;2023-04-24T07:06:45;13.40;93.20
55121;DHT22;41019;48.512;9.036;2023-04-24T07:09:12;13.40;93.20
55121;DHT22;41019;48.512;9.036;2023-04-24T07:11:39;13.40;93.20
55121;DHT22;41019;48.512;9.036;2023-04-24T07:14:06;13.30;93.10
55121;DHT22;41019;48.512;9.036;2023-04-24T07:16:32;13.30;93.10
55121;DHT22;41019;48.512;9.036;2023-04-24T07:18:58;13.30;92.60
55121;DHT22;41019;48.512;9.036;2023-04-24T07:21:24;13.30;91.70
55121;DHT22;41019;48.512;9.036;2023-04-24T07:23:52;13.30;91.90
55121;DHT22;41019;48.512;9.036;2023-04-24T07:26:19;13.30;90.60
55121;DHT22;41019;48.512;9.036;2023-04-24T07:28:45;13.30;90.20
55121;DHT22;41019;48.512;9.036;2023-04-24T07:31:11;13.20;89.00
55121;DHT22;41019;48.512;9.036;2023-04-24T07:33:37;13.20;88.20
55121;DHT22;41019;48.512;9.036;2023-04-24T07:36:03;13.20;90.00
55121;DHT22;41019;48.512;9.036;2023-04-24T07:38:30;13.20;88.60
55121;DHT22;41019;48.512;9.036;2023-04-24T07:40:56;13.20;89.10
55121;DHT22;41019;48.512;9.036;2023-04-24T07:43:22;13.30;87.00
55121;DHT22;41019;48.512;9.036;2023-04-24T07:45:52;13.40;85.50
55121;DHT22;41019;48.512;9.036;2023-04-24T07:48:18;13.40;88.30
55121;DHT22;41019;48.512;9.036;2023-04-24T07:50:44;13.40;85.70
55121;DHT22;41019;48.512;9.036;2023-04-24T07:53:10;13.30;85.60
55121;DHT22;41019;48.512;9.036;2023-04-24T07:55:36;13.40;85.80
55121;DHT22;41019;48.512;9.036;2023-04-24T07:58:03;13.60;84.70
55121;DHT22;41019;48.512;9.036;2023-04-24T08:00:29;13.70;82.70
55121;DHT22;41019;48.512;9.036;2023-04-24T08:02:55;13.70;82.00
55121;DHT22;41019;48.512;9.036;2023-04-24T08:05:21;13.90;81.50
55121;DHT22;41019;48.512;9.036;2023-04-24T08:07:47;14.00;83.10
55121;DHT22;41019;48.512;9.036;2023-04-24T08:10:15;13.90;81.50
55121;DHT22;41019;48.512;9.036;2023-04-24T08:12:42;14.10;79.20
55121;DHT22;41019;48.512;9.036;2023-04-24T08:15:08;14.00;80.20
55121;DHT22;41019;48.512;9.036;2023-04-24T08:17:35;14.00;79.20
55121;DHT22;41019;48.512;9.036;2023-04-24T08:20:03;14.10;78.00
55121;DHT22;41019;48.512;9.036;2023-04-24T08:22:30;14.00;78.40
55121;DHT22;41019;48.512;9.036;2023-04-24T08:24:56;14.00;78.10
55121;DHT22;41019;48.512;9.036;2023-04-24T08:27:23;14.00;78.40
55121;DHT22;41019;48.512;9.036;2023-04-24T08:29:49;14.00;78.10
55121;DHT22;41019;48.512;9.036;2023-04-24T08:32:16;13.80;77.40
55121;DHT22;41019;48.512;9.036;2023-04-24T08:34:42;13.80;77.20
55121;DHT22;41019;48.512;9.036;2023-04-24T08:37:08;13.80;77.20
55121;DHT22;41019;48.512;9.036;2023-04-24T08:39:34;13.80;77.90
55121;DHT22;41019;48.512;9.036;2023-04-24T08:42:02;14.00;76.60
55121;DHT22;41019;48.512;9.036;2023-04-24T08:44:34;14.20;74.60
55121;DHT22;41019;48.512;9.036;2023-04-24T08:47:04;14.40;74.90
55121;DHT22;41019;48.512;9.036;2023-04-24T08:49:32;14.70;75.20
55121;DHT22;41019;48.512;9.036;2023-04-24T08:51:59;15.10;73.40
55121;DHT22;41019;48.512;9.036;2023-04-24T08:54:25;15.40;73.10
55121;DHT22;41019;48.512;9.036;2023-04-24T08:56:54;15.70;70.50
55121;DHT22;41019;48.512;9.036;2023-04-24T08:59:22;16.10;70.40
55121;DHT22;41019;48.512;9.036;2023-04-24T09:01:51;16.30;68.30
55121;DHT22;41019;48.512;9.036;2023-04-24T09:04:20;16.60;68.00
55121;DHT22;41019;48.512;9.036;2023-04-24T09:06:49;16.80;66.50
55121;DHT22;41019;48.512;9.036;2023-04-24T09:09:16;17.10;66.20
55121;DHT22;41019;48.512;9.036;2023-04-24T09:11:43;17.10;64.20
55121;DHT22;41019;48.512;9.036;2023-04-24T09:14:10;17.30;64.40
55121;DHT22;41019;48.512;9.036;2023-04-24T09:16:36;17.30;65.40
55121;DHT22;41019;48.512;9.036;2023-04-24T09:19:02;17.30;64.90
55121;DHT22;41019;48.512;9.036;2023-04-24T09:21:35;17.50;64.60
55121;DHT22;41019;48.512;9.036;2023-04-24T09:24:07;17.50;63.90
55121;DHT22;41019;48.512;9.036;2023-04-24T09:26:36;17.50;64.20
55121;DHT22;41019;48.512;9.036;2023-04-24T09:29:03;17.40;63.10
55121;DHT22;41019;48.512;9.036;2023-04-24T09:31:29;17.20;62.70
55121;DHT22;41019;48.512;9.036;2023-04-24T09:34:04;17.00;63.20
55121;DHT22;41019;48.512;9.036;2023-04-24T09:36:39;16.60;64.00
55121;DHT22;41019;48.512;9.036;2023-04-24T09:39:12;16.30;64.70
55121;DHT22;41019;48.512;9.036;2023-04-24T09:41:55;16.10;65.80
55121;DHT22;41019;48.512;9.036;2023-04-24T09:44:26;15.90;63.60
55121;DHT22;41019;48.512;9.036;2023-04-24T09:46:55;15.80;64.50
55121;DHT22;41019;48.512;9.036;2023-04-24T09:49:29;15.80;65.40
55121;DHT22;41019;48.512;9.036;2023-04-24T09:52:10;15.80;63.80
55121;DHT22;41019;48.512;9.036;2023-04-24T09:54:37;15.70;64.10
55121;DHT22;41019;48.512;9.036;2023-04-24T09:57:04;15.60;63.60
55121;DHT22;41019;48.512;9.036;2023-04-24T09:59:30;15.40;63.30
55121;DHT22;41019;48.512;9.036;2023-04-24T10:01:56;15.40;64.30
55121;DHT22;41019;48.512;9.036;2023-04-24T10:04:28;15.60;64.80
55121;DHT22;41019;48.512;9.036;2023-04-24T10:06:56;15.90;63.00
55121;DHT22;41019;48.512;9.036;2023-04-24T10:09:26;16.00;62.60
55121;DHT22;41019;48.512;9.036;2023-04-24T10:11:54;16.20;61.30
55121;DHT22;41019;48.512;9.036;2023-04-24T10:14:23;16.50;60.40
55121;DHT22;41019;48.512;9.036;2023-04-24T10:16:51;16.80;62.10
55121;DHT22;41019;48.512;9.036;2023-04-24T10:19:18;16.90;60.50
55121;DHT22;41019;48.512;9.036;2023-04-24T10:21:44;17.10;60.70
55121;DHT22;41019;48.512;9.036;2023-04-24T10:24:15;17.30;59.00
55121;DHT22;41019;48.512;9.036;2023-04-24T10:26:42;17.10;58.30
55121;DHT22;41019;48.512;9.036;2023-04-24T10:29:09;17.00;58.40
55121;DHT22;41019;48.512;9.036;2023-04-24T10:31:38;17.00;57.30
55121;DHT22;41019;48.512;9.036;2023-04-24T10:34:08;16.80;57.90
55121;DHT22;41019;48.512;9.036;2023-04-24T10:36:41;16.60;57.60
55121;DHT22;41019;48.512;9.036;2023-04-24T10:39:12;16.50;56.40
55121;DHT22;41019;48.512;9.036;2023-04-24T10:41:38;16.10;58.20
55121;DHT22;41019;48.512;9.036;2023-04-24T10:44:09;16.00;57.90
55121;DHT22;41019;48.512;9.036;2023-04-24T10:46:39;15.90;60.30
55121;DHT22;41019;48.512;9.036;2023-04-24T10:49:06;15.80;61.00
55121;DHT22;41019;48.512;9.036;2023-04-24T10:51:51;15.70;60.50
55121;DHT22;41019;48.512;9.036;2023-04-24T10:54:29;15.70;61.80
55121;DHT22;41019;48.512;9.036;2023-04-24T10:59:50;15.60;62.70
55121;DHT22;41019;48.512;9.036;2023-04-24T11:02:18;15.50;63.00
55121;DHT22;41019;48.512;9.036;2023-04-24T11:04:44;15.50;63.40
55121;DHT22;41019;48.512;9.036;2023-04-24T11:07:11;15.50;63.70
55121;DHT22;41019;48.512;9.036;2023-04-24T11:09:37;15.60;62.70
55121;DHT22;41019;48.512;9.036;2023-04-24T11:12:08;15.60;62.40
55121;DHT22;41019;48.512;9.036;2023-04-24T11:17:36;15.70;62.10
55121;DHT22;41019;48.512;9.036;2023-04-24T11:20:11;15.60;62.80
55121;DHT22;41019;48.512;9.036;2023-04-24T11:22:38;15.80;63.60
55121;DHT22;41019;48.512;9.036;2023-04-24T11:25:09;15.90;61.30
55121;DHT22;41019;48.512;9.036;2023-04-24T11:27:44;15.90;60.60
55121;DHT22;41019;48.512;9.036;2023-04-24T11:30:18;15.80;60.20
55121;DHT22;41019;48.512;9.036;2023-04-24T11:32:50;15.70;60.70
55121;DHT22;41019;48.512;9.036;2023-04-24T11:35:19;15.50;61.30
55121;DHT22;41019;48.512;9.036;2023-04-24T11:37:48;15.40;61.90
55121;DHT22;41019;48.512;9.036;2023-04-24T11:40:16;15.30;62.70
55121;DHT22;41019;48.512;9.036;2023-04-24T11:42:44;15.20;62.40
55121;DHT22;41019;48.512;9.036;2023-04-24T11:45:17;15.30;63.60
55121;DHT22;41019;48.512;9.036;2023-04-24T11:47:44;15.30;63.40
55121;DHT22;41019;48.512;9.036;2023-04-24T11:50:13;15.40;63.00
55121;DHT22;41019;48.512;9.036;2023-04-24T11:52:47;15.40;62.20
55121;DHT22;41019;48.512;9.036;2023-04-24T11:57:47;15.20;62.20
55121;DHT22;41019;48.512;9.036;2023-04-24T12:00:19;15.10;62.50
55121;DHT22;41019;48.512;9.036;2023-04-24T12:02:46;15.00;62.50
55121;DHT22;41019;48.512;9.036;2023-04-24T12:05:23;14.90;62.20
55121;DHT22;41019;48.512;9.036;2023-04-24T12:07:49;14.80;63.10
55121;DHT22;41019;48.512;9.036;2023-04-24T12:10:21;14.70;63.70
55121;DHT22;41019;48.512;9.036;2023-04-24T12:12:46;14.60;65.10
55121;DHT22;41019;48.512;9.036;2023-04-24T12:15:12;14.50;65.00
55121;DHT22;41019;48.512;9.036;2023-04-24T12:17:41;14.40;64.70
55121;DHT22;41019;48.512;9.036;2023-04-24T12:20:08;14.40;65.70
55121;DHT22;41019;48.512;9.036;2023-04-24T12:22:47;14.40;63.70
55121;DHT22;41019;48.512;9.036;2023-04-24T12:25:15;14.40;63.80
55121;DHT22;41019;48.512;9.036;2023-04-24T12:27:41;14.30;64.20
55121;DHT22;41019;48.512;9.036;2023-04-24T12:30:13;14.10;64.20
55121;DHT22;41019;48.512;9.036;2023-04-24T12:32:46;14.00;64.90
55121;DHT22;41019;48.512;9.036;2023-04-24T12:35:13;13.90;65.40
55121;DHT22;41019;48.512;9.036;2023-04-24T12:37:42;13.80;64.40
55121;DHT22;41019;48.512;9.036;2023-04-24T12:40:10;13.70;64.50
55121;DHT22;41019;48.512;9.036;2023-04-24T12:42:43;13.60;64.60
55121;DHT22;41019;48.512;9.036;2023-04-24T12:45:09;13.60;64.90
55121;DHT22;41019;48.512;9.036;2023-04-24T12:47:39;13.60;64.10
55121;DHT22;41019;48.512;9.036;2023-04-24T12:50:10;13.50;64.40
55121;DHT22;41019;48.512;9.036;2023-04-24T12:52:36;13.50;64.90
55121;DHT22;41019;48.512;9.036;2023-04-24T12:55:03;13.60;65.70
55121;DHT22;41019;48.512;9.036;2023-04-24T12:57:31;13.70;67.00
55121;DHT22;41019;48.512;9.036;2023-04-24T12:59:58;13.80;64.60
55121;DHT22;41019;48.512;9.036;2023-04-24T13:02:33;13.80;65.50
55121;DHT22;41019;48.512;9.036;2023-04-24T13:05:00;13.90;65.10
55121;DHT22;41019;48.512;9.036;2023-04-24T13:07:27;14.00;65.50
55121;DHT22;41019;48.512;9.036;2023-04-24T13:09:54;14.30;66.10
55121;DHT22;41019;48.512;9.036;2023-04-24T13:12:20;14.40;64.60
55121;DHT22;41019;48.512;9.036;2023-04-24T13:14:47;14.50;63.60
55121;DHT22;41019;48.512;9.036;2023-04-24T13:17:13;14.50;63.60
55121;DHT22;41019;48.512;9.036;2023-04-24T13:19:42;14.50;63.10
55121;DHT22;41019;48.512;9.036;2023-04-24T13:22:10;14.50;63.80
55121;DHT22;41019;48.512;9.036;2023-04-24T13:24:37;14.40;63.10
55121;DHT22;41019;48.512;9.036;2023-04-24T13:27:03;14.30;64.10
55121;DHT22;41019;48.512;9.036;2023-04-24T13:29:29;14.40;64.40
55121;DHT22;41019;48.512;9.036;2023-04-24T13:31:55;14.40;63.20
55121;DHT22;41019;48.512;9.036;2023-04-24T13:34:23;14.40;63.50
55121;DHT22;41019;48.512;9.036;2023-04-24T13:36:50;14.30;63.80
55121;DHT22;41019;48.512;9.036;2023-04-24T13:39:17;14.30;63.40
55121;DHT22;41019;48.512;9.036;2023-04-24T13:41:43;14.20;64.30
55121;DHT22;41019;48.512;9.036;2023-04-24T13:44:09;14.30;64.10
55121;DHT22;41019;48.512;9.036;2023-04-24T13:46:35;14.20;63.80
55121;DHT22;41019;48.512;9.036;2023-04-24T13:49:02;14.30;64.00
55121;DHT22;41019;48.512;9.036;2023-04-24T13:51:29;14.40;64.30
55121;DHT22;41019;48.512;9.036;2023-04-24T13:53:55;14.50;64.20
55121;DHT22;41019;48.512;9.036;2023-04-24T13:56:21;14.50;62.70
55121;DHT22;41019;48.512;9.036;2023-04-24T13:58:48;14.60;63.20
55121;DHT22;41019;48.512;9.036;2023-04-24T14:01:15;14.60;63.40
55121;DHT22;41019;48.512;9.036;2023-04-24T14:03:41;14.60;62.50
55121;DHT22;41019;48.512;9.036;2023-04-24T14:06:11;14.50;62.30
55121;DHT22;41019;48.512;9.036;2023-04-24T14:08:38;14.50;62.60
55121;DHT22;41019;48.512;9.036;2023-04-24T14:11:04;14.50;62.40
55121;DHT22;41019;48.512;9.036;2023-04-24T14:13:30;14.40;62.20
55121;DHT22;41019;48.512;9.036;2023-04-24T14:15:56;14.30;62.50
55121;DHT22;41019;48.512;9.036;2023-04-24T14:18:22;14.20;61.80
55121;DHT22;41019;48.512;9.036;2023-04-24T14:20:47;14.10;62.50
55121;DHT22;41019;48.512;9.036;2023-04-24T14:23:13;14.10;63.10
55121;DHT22;41019;48.512;9.036;2023-04-24T14:25:39;14.00;62.70
55121;DHT22;41019;48.512;9.036;2023-04-24T14:28:06;14.00;63.50
55121;DHT22;41019;48.512;9.036;2023-04-24T14:30:32;13.90;64.30
55121;DHT22;41019;48.512;9.036;2023-04-24T14:32:58;13.90;64.30
55121;DHT22;41019;48.512;9.036;2023-04-24T14:35:24;13.90;64.20
55121;DHT22;41019;48.512;9.036;2023-04-24T14:37:50;13.90;65.00
55121;DHT22;41019;48.512;9.036;2023-04-24T14:40:16;13.90;65.00
55121;DHT22;41019;48.512;9.036;2023-04-24T14:42:42;14.00;65.00
55121;DHT22;41019;48.512;9.036;2023-04-24T14:45:08;14.00;63.60
55121;DHT22;41019;48.512;9.036;2023-04-24T14:47:34;13.90;63.90
55121;DHT22;41019;48.512;9.036;2023-04-24T14:50:00;13.90;64.00
55121;DHT22;41019;48.512;9.036;2023-04-24T14:52:26;14.00;64.80
55121;DHT22;41019;48.512;9.036;2023-04-24T14:54:52;14.00;64.60
55121;DHT22;41019;48.512;9.036;2023-04-24T14:57:18;14.00;64.50
55121;DHT22;41019;48.512;9.036;2023-04-24T14:59:44;14.00;64.30
55121;DHT22;41019;48.512;9.036;2023-04-24T15:02:10;14.00;63.90
55121;DHT22;41019;48.512;9.036;2023-04-24T15:04:36;14.10;64.20
55121;DHT22;41019;48.512;9.036;2023-04-24T15:07:01;14.10;63.10
55121;DHT22;41019;48.512;9.036;2023-04-24T15:09:27;14.20;63.00
55121;DHT22;41019;48.512;9.036;2023-04-24T15:11:54;14.20;63.60
55121;DHT22;41019;48.512;9.036;2023-04-24T15:14:20;14.10;64.70
55121;DHT22;41019;48.512;9.036;2023-04-24T15:16:46;14.20;64.10
55121;DHT22;41019;48.512;9.036;2023-04-24T15:19:12;14.20;63.40
55121;DHT22;41019;48.512;9.036;2023-04-24T15:21:38;14.20;64.40
55121;DHT22;41019;48.512;9.036;2023-04-24T15:24:05;14.20;63.80
55121;DHT22;41019;48.512;9.036;2023-04-24T15:26:31;14.20;63.10
55121;DHT22;41019;48.512;9.036;2023-04-24T15:28:57;14.20;64.50
55121;DHT22;41019;48.512;9.036;2023-04-24T15:31:23;14.20;63.50
55121;DHT22;41019;48.512;9.036;2023-04-24T15:33:50;14.20;63.20
55121;DHT22;41019;48.512;9.036;2023-04-24T15:36:17;14.10;64.30
55121;DHT22;41019;48.512;9.036;2023-04-24T15:38:43;14.10;64.30
55121;DHT22;41019;48.512;9.036;2023-04-24T15:41:10;14.10;63.90